sensor_id;sensor_type;location;lat;lon;timestamp;P1;durP1;ratioP1;P2;durP2;ratioP2
81621;SDS011;71029;50.742;7.090;2023-07-31T00:02:08;3.50;;;1.48;;
81621;SDS011;71029;50.742;7.090;2023-07-31T00:04:34;2.53;;;0.90;;
81621;SDS011;71029;50.742;7.090;2023-07-31T00:07:01;3.13;;;1.30;;
81621;SDS011;71029;50.742;7.090;2023-07-31T00:09:30;3.85;;;1.40;;
81621;SDS011;71029;50.742;7.090;2023-07-31T00:11:56;2.63;;;1.33;;
81621;SDS011;71029;50.742;7.090;2023-07-31T00:14:23;3.63;;;1.13;;
81621;SDS011;71029;50.742;7.090;2023-07-31T00:16:50;2.33;;;1.20;;
81621;SDS011;71029;50.742;7.090;2023-07-31T00:19:17;2.00;;;1.17;;
81621;SDS011;71029;50.742;7.090;2023-07-31T00:21:44;3.25;;;1.48;;
81621;SDS011;71029;50.742;7.090;2023-07-31T00:24:11;2.50;;;1.60;;
81621;SDS011;71029;50.742;7.090;2023-07-31T00:26:37;2.33;;;1.15;;
81621;SDS011;71029;50.742;7.090;2023-07-31T00:29:04;3.35;;;1.65;;
81621;SDS011;71029;50.742;7.090;2023-07-31T00:31:31;2.85;;;1.67;;
81621;SDS011;71029;50.742;7.090;2023-07-31T00:33:57;2.17;;;1.35;;
81621;SDS011;71029;50.742;7.090;2023-07-31T00:36:24;3.28;;;1.63;;
81621;SDS011;71029;50.742;7.090;2023-07-31T00:38:50;2.47;;;1.20;;
81621;SDS011;71029;50.742;7.090;2023-07-31T00:41:17;3.03;;;1.25;;
81621;SDS011;71029;50.742;7.090;2023-07-31T00:43:43;1.90;;;0.93;;
81621;SDS011;71029;50.742;7.090;2023-07-31T00:46:10;2.33;;;0.98;;
81621;SDS011;71029;50.742;7.090;2023-07-31T00:48:37;1.83;;;1.13;;
81621;SDS011;71029;50.742;7.090;2023-07-31T00:51:06;3.25;;;1.55;;
81621;SDS011;71029;50.742;7.090;2023-07-31T00:53:34;2.47;;;1.10;;
81621;SDS011;71029;50.742;7.090;2023-07-31T00:56:01;2.17;;;1.17;;
81621;SDS011;71029;50.742;7.090;2023-07-31T00:58:27;2.03;;;1.35;;
81621;SDS011;71029;50.742;7.090;2023-07-31T01:00:54;2.38;;;1.25;;
81621;SDS011;71029;50.742;7.090;2023-07-31T01:03:20;2.40;;;1.38;;
81621;SDS011;71029;50.742;7.090;2023-07-31T01:08:51;2.60;;;1.40;;
81621;SDS011;71029;50.742;7.090;2023-07-31T01:11:29;2.67;;;1.13;;
81621;SDS011;71029;50.742;7.090;2023-07-31T01:13:57;2.95;;;1.23;;
81621;SDS011;71029;50.742;7.090;2023-07-31T01:16:25;1.73;;;1.10;;
81621;SDS011;71029;50.742;7.090;2023-07-31T01:18:53;3.05;;;1.25;;
81621;SDS011;71029;50.742;7.090;2023-07-31T01:27:15;2.03;;;1.20;;
81621;SDS011;71029;50.742;7.090;2023-07-31T01:29:56;3.55;;;1.15;;
81621;SDS011;71029;50.742;7.090;2023-07-31T01:34:56;2.20;;;1.13;;
81621;SDS011;71029;50.742;7.090;2023-07-31T01:37:28;2.40;;;1.23;;
81621;SDS011;71029;50.742;7.090;2023-07-31T01:39:56;2.35;;;1.05;;
81621;SDS011;71029;50.742;7.090;2023-07-31T01:42:23;2.35;;;1.60;;
81621;SDS011;71029;50.742;7.090;2023-07-31T01:44:49;2.83;;;1.23;;
81621;SDS011;71029;50.742;7.090;2023-07-31T01:47:16;2.10;;;1.45;;
81621;SDS011;71029;50.742;7.090;2023-07-31T01:49:43;3.65;;;1.50;;
81621;SDS011;71029;50.742;7.090;2023-07-31T01:52:10;1.88;;;1.25;;
81621;SDS011;71029;50.742;7.090;2023-07-31T01:54:36;2.75;;;1.20;;
81621;SDS011;71029;50.742;7.090;2023-07-31T01:57:03;1.95;;;0.98;;
81621;SDS011;71029;50.742;7.090;2023-07-31T01:59:29;2.33;;;1.17;;
81621;SDS011;71029;50.742;7.090;2023-07-31T02:01:56;2.58;;;1.20;;
81621;SDS011;71029;50.742;7.090;2023-07-31T02:04:22;2.78;;;1.63;;
81621;SDS011;71029;50.742;7.090;2023-07-31T02:06:49;2.42;;;1.25;;
81621;SDS011;71029;50.742;7.090;2023-07-31T02:09:15;2.78;;;1.38;;
81621;SDS011;71029;50.742;7.090;2023-07-31T02:11:42;2.85;;;1.33;;
81621;SDS011;71029;50.742;7.090;2023-07-31T02:14:08;1.95;;;1.13;;
81621;SDS011;71029;50.742;7.090;2023-07-31T02:16:35;2.45;;;1.13;;
81621;SDS011;71029;50.742;7.090;2023-07-31T02:19:01;1.92;;;1.20;;
81621;SDS011;71029;50.742;7.090;2023-07-31T02:21:28;2.30;;;1.25;;
81621;SDS011;71029;50.742;7.090;2023-07-31T02:23:55;2.00;;;0.95;;
81621;SDS011;71029;50.742;7.090;2023-07-31T02:26:21;2.17;;;1.00;;
81621;SDS011;71029;50.742;7.090;2023-07-31T02:28:48;2.30;;;1.38;;
81621;SDS011;71029;50.742;7.090;2023-07-31T02:31:14;2.10;;;0.93;;
81621;SDS011;71029;50.742;7.090;2023-07-31T02:33:41;2.15;;;1.23;;
81621;SDS011;71029;50.742;7.090;2023-07-31T02:36:07;2.85;;;1.08;;
81621;SDS011;71029;50.742;7.090;2023-07-31T02:38:34;3.53;;;0.90;;
81621;SDS011;71029;50.742;7.090;2023-07-31T02:41:00;2.72;;;1.10;;
81621;SDS011;71029;50.742;7.090;2023-07-31T02:43:27;2.25;;;1.08;;
81621;SDS011;71029;50.742;7.090;2023-07-31T02:45:53;2.00;;;1.30;;
81621;SDS011;71029;50.742;7.090;2023-07-31T02:48:20;2.33;;;1.02;;
81621;SDS011;71029;50.742;7.090;2023-07-31T02:50:47;2.72;;;1.48;;
81621;SDS011;71029;50.742;7.090;2023-07-31T02:53:14;2.42;;;1.35;;
81621;SDS011;71029;50.742;7.090;2023-07-31T02:55:40;2.10;;;1.27;;
81621;SDS011;71029;50.742;7.090;2023-07-31T02:58:07;2.80;;;1.63;;
81621;SDS011;71029;50.742;7.090;2023-07-31T03:00:33;2.97;;;1.05;;
81621;SDS011;71029;50.742;7.090;2023-07-31T03:03:00;2.35;;;1.33;;
81621;SDS011;71029;50.742;7.090;2023-07-31T03:05:27;2.30;;;1.10;;
81621;SDS011;71029;50.742;7.090;2023-07-31T03:07:54;3.20;;;1.20;;
81621;SDS011;71029;50.742;7.090;2023-07-31T03:10:20;1.98;;;1.10;;
81621;SDS011;71029;50.742;7.090;2023-07-31T03:12:47;2.17;;;0.93;;
81621;SDS011;71029;50.742;7.090;2023-07-31T03:15:14;2.53;;;1.23;;
81621;SDS011;71029;50.742;7.090;2023-07-31T03:17:40;1.70;;;1.08;;
81621;SDS011;71029;50.742;7.090;2023-07-31T03:20:07;2.47;;;1.52;;
81621;SDS011;71029;50.742;7.090;2023-07-31T03:22:34;2.15;;;1.02;;
81621;SDS011;71029;50.742;7.090;2023-07-31T03:25:02;3.00;;;1.30;;
81621;SDS011;71029;50.742;7.090;2023-07-31T03:27:28;2.33;;;1.20;;
81621;SDS011;71029;50.742;7.090;2023-07-31T03:29:55;1.95;;;1.17;;
81621;SDS011;71029;50.742;7.090;2023-07-31T03:32:22;2.95;;;1.45;;
81621;SDS011;71029;50.742;7.090;2023-07-31T03:34:49;3.42;;;1.45;;
81621;SDS011;71029;50.742;7.090;2023-07-31T03:37:16;2.40;;;1.23;;
81621;SDS011;71029;50.742;7.090;2023-07-31T03:39:42;2.70;;;1.52;;
81621;SDS011;71029;50.742;7.090;2023-07-31T03:42:09;1.90;;;1.30;;
81621;SDS011;71029;50.742;7.090;2023-07-31T03:44:35;2.90;;;1.35;;
81621;SDS011;71029;50.742;7.090;2023-07-31T03:47:02;2.50;;;1.20;;
81621;SDS011;71029;50.742;7.090;2023-07-31T03:49:28;4.32;;;1.23;;
81621;SDS011;71029;50.742;7.090;2023-07-31T03:51:55;2.78;;;1.50;;
81621;SDS011;71029;50.742;7.090;2023-07-31T03:54:22;2.83;;;1.35;;
81621;SDS011;71029;50.742;7.090;2023-07-31T03:56:49;2.58;;;1.50;;
81621;SDS011;71029;50.742;7.090;2023-07-31T03:59:15;2.95;;;1.40;;
81621;SDS011;71029;50.742;7.090;2023-07-31T04:01:42;1.98;;;1.10;;
81621;SDS011;71029;50.742;7.090;2023-07-31T04:04:09;3.13;;;1.60;;
81621;SDS011;71029;50.742;7.090;2023-07-31T04:06:35;3.40;;;1.50;;
81621;SDS011;71029;50.742;7.090;2023-07-31T04:09:02;2.40;;;1.25;;
81621;SDS011;71029;50.742;7.090;2023-07-31T04:11:29;1.85;;;1.05;;
81621;SDS011;71029;50.742;7.090;2023-07-31T04:13:55;2.90;;;1.45;;
81621;SDS011;71029;50.742;7.090;2023-07-31T04:16:22;2.72;;;1.60;;
81621;SDS011;71029;50.742;7.090;2023-07-31T04:18:48;2.75;;;1.40;;
81621;SDS011;71029;50.742;7.090;2023-07-31T04:21:15;2.55;;;1.30;;
81621;SDS011;71029;50.742;7.090;2023-07-31T04:23:41;2.53;;;1.38;;
81621;SDS011;71029;50.742;7.090;2023-07-31T04:26:08;2.92;;;1.40;;
81621;SDS011;71029;50.742;7.090;2023-07-31T04:28:34;2.47;;;1.00;;
81621;SDS011;71029;50.742;7.090;2023-07-31T04:31:01;2.88;;;1.70;;
81621;SDS011;71029;50.742;7.090;2023-07-31T04:33:28;2.67;;;1.30;;
81621;SDS011;71029;50.742;7.090;2023-07-31T04:35:54;3.55;;;1.42;;
81621;SDS011;71029;50.742;7.090;2023-07-31T04:38:20;2.13;;;1.23;;
81621;SDS011;71029;50.742;7.090;2023-07-31T04:40:47;2.97;;;1.42;;
81621;SDS011;71029;50.742;7.090;2023-07-31T04:43:14;2.65;;;1.45;;
81621;SDS011;71029;50.742;7.090;2023-07-31T04:45:47;3.88;;;1.75;;
81621;SDS011;71029;50.742;7.090;2023-07-31T04:48:14;3.00;;;1.35;;
81621;SDS011;71029;50.742;7.090;2023-07-31T04:50:41;2.22;;;1.33;;
81621;SDS011;71029;50.742;7.090;2023-07-31T04:53:08;2.55;;;1.50;;
81621;SDS011;71029;50.742;7.090;2023-07-31T04:55:34;1.88;;;1.30;;
81621;SDS011;71029;50.742;7.090;2023-07-31T04:58:01;3.20;;;1.50;;
81621;SDS011;71029;50.742;7.090;2023-07-31T05:00:27;3.83;;;1.67;;
81621;SDS011;71029;50.742;7.090;2023-07-31T05:02:54;2.55;;;1.23;;
81621;SDS011;71029;50.742;7.090;2023-07-31T05:05:20;3.03;;;1.48;;
81621;SDS011;71029;50.742;7.090;2023-07-31T05:07:47;4.05;;;1.30;;
81621;SDS011;71029;50.742;7.090;2023-07-31T05:10:14;5.30;;;1.92;;
81621;SDS011;71029;50.742;7.090;2023-07-31T05:12:40;4.75;;;1.73;;
81621;SDS011;71029;50.742;7.090;2023-07-31T05:15:06;4.35;;;1.85;;
81621;SDS011;71029;50.742;7.090;2023-07-31T05:17:33;5.03;;;2.03;;
81621;SDS011;71029;50.742;7.090;2023-07-31T05:20:00;5.32;;;1.85;;
81621;SDS011;71029;50.742;7.090;2023-07-31T05:22:26;6.15;;;1.77;;
81621;SDS011;71029;50.742;7.090;2023-07-31T05:24:53;4.70;;;1.88;;
81621;SDS011;71029;50.742;7.090;2023-07-31T05:27:20;7.22;;;1.95;;
81621;SDS011;71029;50.742;7.090;2023-07-31T05:29:47;6.80;;;2.05;;
81621;SDS011;71029;50.742;7.090;2023-07-31T05:32:13;3.45;;;1.73;;
81621;SDS011;71029;50.742;7.090;2023-07-31T05:34:40;5.95;;;1.48;;
81621;SDS011;71029;50.742;7.090;2023-07-31T05:37:06;5.10;;;1.45;;
81621;SDS011;71029;50.742;7.090;2023-07-31T05:39:33;3.45;;;1.40;;
81621;SDS011;71029;50.742;7.090;2023-07-31T05:41:59;2.85;;;1.42;;
81621;SDS011;71029;50.742;7.090;2023-07-31T05:44:26;5.32;;;1.70;;
81621;SDS011;71029;50.742;7.090;2023-07-31T05:46:52;3.50;;;1.60;;
81621;SDS011;71029;50.742;7.090;2023-07-31T05:49:19;4.72;;;1.98;;
81621;SDS011;71029;50.742;7.090;2023-07-31T05:51:45;4.85;;;1.83;;
81621;SDS011;71029;50.742;7.090;2023-07-31T05:54:12;4.30;;;1.50;;
81621;SDS011;71029;50.742;7.090;2023-07-31T05:56:38;4.03;;;1.60;;
81621;SDS011;71029;50.742;7.090;2023-07-31T05:59:05;5.45;;;2.05;;
81621;SDS011;71029;50.742;7.090;2023-07-31T06:01:32;4.38;;;1.73;;
81621;SDS011;71029;50.742;7.090;2023-07-31T06:03:58;3.70;;;1.90;;
81621;SDS011;71029;50.742;7.090;2023-07-31T06:06:25;4.85;;;1.92;;
81621;SDS011;71029;50.742;7.090;2023-07-31T06:08:51;7.07;;;1.77;;
81621;SDS011;71029;50.742;7.090;2023-07-31T06:11:18;7.32;;;1.98;;
81621;SDS011;71029;50.742;7.090;2023-07-31T06:13:46;3.80;;;1.88;;
81621;SDS011;71029;50.742;7.090;2023-07-31T06:16:14;4.78;;;2.03;;
81621;SDS011;71029;50.742;7.090;2023-07-31T06:18:41;4.90;;;2.03;;
81621;SDS011;71029;50.742;7.090;2023-07-31T06:21:08;3.38;;;1.50;;
81621;SDS011;71029;50.742;7.090;2023-07-31T06:23:35;4.93;;;2.20;;
81621;SDS011;71029;50.742;7.090;2023-07-31T06:26:02;7.47;;;1.95;;
81621;SDS011;71029;50.742;7.090;2023-07-31T06:28:29;4.30;;;1.77;;
81621;SDS011;71029;50.742;7.090;2023-07-31T06:30:59;7.28;;;2.38;;
81621;SDS011;71029;50.742;7.090;2023-07-31T06:33:27;5.30;;;2.08;;
81621;SDS011;71029;50.742;7.090;2023-07-31T06:35:54;5.15;;;2.08;;
81621;SDS011;71029;50.742;7.090;2023-07-31T06:38:24;4.13;;;1.88;;
81621;SDS011;71029;50.742;7.090;2023-07-31T06:40:52;5.63;;;2.33;;
81621;SDS011;71029;50.742;7.090;2023-07-31T06:43:18;4.10;;;1.88;;
81621;SDS011;71029;50.742;7.090;2023-07-31T06:45:45;5.03;;;2.50;;
81621;SDS011;71029;50.742;7.090;2023-07-31T06:48:12;5.57;;;2.50;;
81621;SDS011;71029;50.742;7.090;2023-07-31T06:50:39;6.13;;;2.50;;
81621;SDS011;71029;50.742;7.090;2023-07-31T06:53:05;5.80;;;1.80;;
81621;SDS011;71029;50.742;7.090;2023-07-31T06:55:33;4.35;;;2.03;;
81621;SDS011;71029;50.742;7.090;2023-07-31T06:57:59;5.35;;;2.50;;
81621;SDS011;71029;50.742;7.090;2023-07-31T07:00:26;6.40;;;2.33;;
81621;SDS011;71029;50.742;7.090;2023-07-31T07:02:53;5.43;;;2.38;;
81621;SDS011;71029;50.742;7.090;2023-07-31T07:05:19;5.53;;;2.28;;
81621;SDS011;71029;50.742;7.090;2023-07-31T07:07:46;3.75;;;2.05;;
81621;SDS011;71029;50.742;7.090;2023-07-31T07:10:12;5.15;;;2.78;;
81621;SDS011;71029;50.742;7.090;2023-07-31T07:12:39;5.88;;;2.40;;
81621;SDS011;71029;50.742;7.090;2023-07-31T07:15:05;3.90;;;2.00;;
81621;SDS011;71029;50.742;7.090;2023-07-31T07:17:32;5.50;;;2.42;;
81621;SDS011;71029;50.742;7.090;2023-07-31T07:19:59;4.93;;;2.10;;
81621;SDS011;71029;50.742;7.090;2023-07-31T07:22:27;6.35;;;2.03;;
81621;SDS011;71029;50.742;7.090;2023-07-31T07:24:53;4.78;;;2.42;;
81621;SDS011;71029;50.742;7.090;2023-07-31T07:27:20;5.05;;;2.10;;
81621;SDS011;71029;50.742;7.090;2023-07-31T07:29:47;7.97;;;2.30;;
81621;SDS011;71029;50.742;7.090;2023-07-31T07:32:16;5.93;;;2.30;;
81621;SDS011;71029;50.742;7.090;2023-07-31T07:34:44;6.07;;;2.17;;
81621;SDS011;71029;50.742;7.090;2023-07-31T07:37:11;8.68;;;2.88;;
81621;SDS011;71029;50.742;7.090;2023-07-31T07:39:38;7.65;;;2.88;;
81621;SDS011;71029;50.742;7.090;2023-07-31T07:42:04;4.85;;;2.30;;
81621;SDS011;71029;50.742;7.090;2023-07-31T07:44:31;5.10;;;2.22;;
81621;SDS011;71029;50.742;7.090;2023-07-31T07:46:58;4.75;;;2.40;;
81621;SDS011;71029;50.742;7.090;2023-07-31T07:49:24;6.97;;;2.88;;
81621;SDS011;71029;50.742;7.090;2023-07-31T07:51:51;4.72;;;2.33;;
81621;SDS011;71029;50.742;7.090;2023-07-31T07:54:18;7.35;;;2.55;;
81621;SDS011;71029;50.742;7.090;2023-07-31T07:56:45;4.32;;;2.03;;
81621;SDS011;71029;50.742;7.090;2023-07-31T07:59:11;4.70;;;2.50;;
81621;SDS011;71029;50.742;7.090;2023-07-31T08:01:38;5.72;;;2.33;;
81621;SDS011;71029;50.742;7.090;2023-07-31T08:04:04;4.78;;;2.22;;
81621;SDS011;71029;50.742;7.090;2023-07-31T08:06:31;4.65;;;2.50;;
81621;SDS011;71029;50.742;7.090;2023-07-31T08:08:57;7.50;;;2.85;;
81621;SDS011;71029;50.742;7.090;2023-07-31T08:11:25;5.28;;;2.25;;
81621;SDS011;71029;50.742;7.090;2023-07-31T08:13:52;7.88;;;2.60;;
81621;SDS011;71029;50.742;7.090;2023-07-31T08:16:18;6.75;;;2.78;;
81621;SDS011;71029;50.742;7.090;2023-07-31T08:18:45;6.60;;;2.70;;
81621;SDS011;71029;50.742;7.090;2023-07-31T08:21:11;4.05;;;1.85;;
81621;SDS011;71029;50.742;7.090;2023-07-31T08:23:38;6.25;;;2.90;;
81621;SDS011;71029;50.742;7.090;2023-07-31T08:26:04;5.75;;;2.67;;
81621;SDS011;71029;50.742;7.090;2023-07-31T08:28:30;4.85;;;2.20;;
81621;SDS011;71029;50.742;7.090;2023-07-31T08:30:57;4.30;;;2.20;;
81621;SDS011;71029;50.742;7.090;2023-07-31T08:33:23;3.72;;;2.08;;
81621;SDS011;71029;50.742;7.090;2023-07-31T08:35:50;4.43;;;2.10;;
81621;SDS011;71029;50.742;7.090;2023-07-31T08:38:16;5.60;;;2.75;;
81621;SDS011;71029;50.742;7.090;2023-07-31T08:40:43;5.50;;;2.33;;
81621;SDS011;71029;50.742;7.090;2023-07-31T08:43:09;5.65;;;2.42;;
81621;SDS011;71029;50.742;7.090;2023-07-31T08:45:35;5.47;;;2.38;;
81621;SDS011;71029;50.742;7.090;2023-07-31T08:48:03;4.88;;;2.08;;
81621;SDS011;71029;50.742;7.090;2023-07-31T08:50:29;4.88;;;2.30;;
81621;SDS011;71029;50.742;7.090;2023-07-31T08:52:56;3.58;;;1.98;;
81621;SDS011;71029;50.742;7.090;2023-07-31T08:55:24;4.88;;;2.10;;
81621;SDS011;71029;50.742;7.090;2023-07-31T08:57:51;4.50;;;2.22;;
81621;SDS011;71029;50.742;7.090;2023-07-31T09:00:19;4.93;;;2.28;;
81621;SDS011;71029;50.742;7.090;2023-07-31T09:02:53;4.50;;;2.28;;
81621;SDS011;71029;50.742;7.090;2023-07-31T09:05:23;3.78;;;1.90;;
81621;SDS011;71029;50.742;7.090;2023-07-31T09:07:53;5.80;;;2.03;;
81621;SDS011;71029;50.742;7.090;2023-07-31T09:10:21;6.80;;;2.00;;
81621;SDS011;71029;50.742;7.090;2023-07-31T09:12:48;6.28;;;2.50;;
81621;SDS011;71029;50.742;7.090;2023-07-31T09:15:16;4.78;;;2.38;;
81621;SDS011;71029;50.742;7.090;2023-07-31T09:18:01;3.88;;;2.22;;
81621;SDS011;71029;50.742;7.090;2023-07-31T09:20:28;3.92;;;2.17;;
81621;SDS011;71029;50.742;7.090;2023-07-31T09:22:55;5.28;;;2.10;;
81621;SDS011;71029;50.742;7.090;2023-07-31T09:25:23;6.25;;;2.22;;
81621;SDS011;71029;50.742;7.090;2023-07-31T09:27:53;5.32;;;2.15;;
81621;SDS011;71029;50.742;7.090;2023-07-31T09:30:21;3.30;;;1.63;;
81621;SDS011;71029;50.742;7.090;2023-07-31T09:32:48;3.95;;;2.20;;
81621;SDS011;71029;50.742;7.090;2023-07-31T09:37:55;6.40;;;2.42;;
81621;SDS011;71029;50.742;7.090;2023-07-31T09:40:25;5.32;;;2.08;;
81621;SDS011;71029;50.742;7.090;2023-07-31T09:43:11;3.45;;;2.17;;
81621;SDS011;71029;50.742;7.090;2023-07-31T09:45:40;3.80;;;1.77;;
81621;SDS011;71029;50.742;7.090;2023-07-31T09:50:41;5.53;;;2.83;;
81621;SDS011;71029;50.742;7.090;2023-07-31T09:53:08;4.32;;;2.17;;
81621;SDS011;71029;50.742;7.090;2023-07-31T09:55:35;5.72;;;2.47;;
81621;SDS011;71029;50.742;7.090;2023-07-31T09:58:03;4.55;;;1.80;;
81621;SDS011;71029;50.742;7.090;2023-07-31T10:00:31;5.05;;;2.25;;
81621;SDS011;71029;50.742;7.090;2023-07-31T10:02:59;3.42;;;1.80;;
81621;SDS011;71029;50.742;7.090;2023-07-31T10:08:04;5.30;;;2.38;;
81621;SDS011;71029;50.742;7.090;2023-07-31T10:10:32;6.35;;;2.08;;
81621;SDS011;71029;50.742;7.090;2023-07-31T10:13:02;6.32;;;2.00;;
81621;SDS011;71029;50.742;7.090;2023-07-31T10:15:30;4.90;;;1.98;;
81621;SDS011;71029;50.742;7.090;2023-07-31T10:17:58;3.47;;;1.98;;
81621;SDS011;71029;50.742;7.090;2023-07-31T10:20:25;3.85;;;2.25;;
81621;SDS011;71029;50.742;7.090;2023-07-31T10:22:54;3.10;;;1.60;;
81621;SDS011;71029;50.742;7.090;2023-07-31T10:25:21;5.10;;;2.05;;
81621;SDS011;71029;50.742;7.090;2023-07-31T10:27:48;3.72;;;1.92;;
81621;SDS011;71029;50.742;7.090;2023-07-31T10:30:17;3.83;;;2.00;;
81621;SDS011;71029;50.742;7.090;2023-07-31T10:32:45;4.90;;;2.10;;
81621;SDS011;71029;50.742;7.090;2023-07-31T10:35:14;2.35;;;1.65;;
81621;SDS011;71029;50.742;7.090;2023-07-31T10:37:44;4.68;;;1.70;;
81621;SDS011;71029;50.742;7.090;2023-07-31T10:40:17;3.10;;;1.58;;
81621;SDS011;71029;50.742;7.090;2023-07-31T10:42:50;3.72;;;1.95;;
81621;SDS011;71029;50.742;7.090;2023-07-31T10:48:00;3.67;;;1.83;;
81621;SDS011;71029;50.742;7.090;2023-07-31T10:50:29;2.88;;;1.52;;
81621;SDS011;71029;50.742;7.090;2023-07-31T10:53:00;3.15;;;1.67;;
81621;SDS011;71029;50.742;7.090;2023-07-31T10:58:04;2.70;;;1.45;;
81621;SDS011;71029;50.742;7.090;2023-07-31T11:00:32;3.22;;;1.42;;
81621;SDS011;71029;50.742;7.090;2023-07-31T11:03:03;2.28;;;1.15;;
81621;SDS011;71029;50.742;7.090;2023-07-31T11:05:44;2.97;;;1.70;;
81621;SDS011;71029;50.742;7.090;2023-07-31T11:08:32;3.22;;;1.83;;
81621;SDS011;71029;50.742;7.090;2023-07-31T11:15:58;2.78;;;1.30;;
81621;SDS011;71029;50.742;7.090;2023-07-31T11:18:26;3.10;;;1.45;;
81621;SDS011;71029;50.742;7.090;2023-07-31T11:20:53;4.15;;;1.42;;
81621;SDS011;71029;50.742;7.090;2023-07-31T11:23:21;3.15;;;1.40;;
81621;SDS011;71029;50.742;7.090;2023-07-31T11:25:48;2.47;;;1.40;;
81621;SDS011;71029;50.742;7.090;2023-07-31T11:28:16;3.42;;;1.63;;
81621;SDS011;71029;50.742;7.090;2023-07-31T11:30:44;2.38;;;1.20;;
81621;SDS011;71029;50.742;7.090;2023-07-31T11:33:12;3.83;;;1.20;;
81621;SDS011;71029;50.742;7.090;2023-07-31T11:35:44;2.63;;;1.25;;
81621;SDS011;71029;50.742;7.090;2023-07-31T11:38:21;4.47;;;1.77;;
81621;SDS011;71029;50.742;7.090;2023-07-31T11:40:56;2.90;;;1.30;;
81621;SDS011;71029;50.742;7.090;2023-07-31T11:43:23;2.47;;;1.17;;
81621;SDS011;71029;50.742;7.090;2023-07-31T11:45:51;2.00;;;0.93;;
81621;SDS011;71029;50.742;7.090;2023-07-31T11:48:20;2.08;;;0.93;;
81621;SDS011;71029;50.742;7.090;2023-07-31T11:50:56;2.78;;;1.20;;
81621;SDS011;71029;50.742;7.090;2023-07-31T11:53:29;2.83;;;0.73;;
81621;SDS011;71029;50.742;7.090;2023-07-31T11:55:57;2.33;;;0.88;;
81621;SDS011;71029;50.742;7.090;2023-07-31T11:58:25;2.72;;;1.08;;
81621;SDS011;71029;50.742;7.090;2023-07-31T12:00:52;3.85;;;1.25;;
81621;SDS011;71029;50.742;7.090;2023-07-31T12:03:19;3.60;;;1.10;;
81621;SDS011;71029;50.742;7.090;2023-07-31T12:05:49;2.40;;;1.23;;
81621;SDS011;71029;50.742;7.090;2023-07-31T12:08:16;2.42;;;0.88;;
81621;SDS011;71029;50.742;7.090;2023-07-31T12:10:42;2.25;;;0.93;;
81621;SDS011;71029;50.742;7.090;2023-07-31T12:13:11;2.20;;;1.15;;
81621;SDS011;71029;50.742;7.090;2023-07-31T12:15:45;3.15;;;1.02;;
81621;SDS011;71029;50.742;7.090;2023-07-31T12:18:13;2.30;;;1.08;;
81621;SDS011;71029;50.742;7.090;2023-07-31T12:20:45;3.90;;;1.05;;
81621;SDS011;71029;50.742;7.090;2023-07-31T12:23:16;2.58;;;0.82;;
81621;SDS011;71029;50.742;7.090;2023-07-31T12:26:10;3.50;;;0.90;;
81621;SDS011;71029;50.742;7.090;2023-07-31T12:31:14;2.05;;;0.77;;
81621;SDS011;71029;50.742;7.090;2023-07-31T12:33:45;1.48;;;0.63;;
81621;SDS011;71029;50.742;7.090;2023-07-31T12:36:13;2.42;;;1.10;;
81621;SDS011;71029;50.742;7.090;2023-07-31T12:41:08;1.88;;;0.93;;
81621;SDS011;71029;50.742;7.090;2023-07-31T12:43:35;2.28;;;0.95;;
81621;SDS011;71029;50.742;7.090;2023-07-31T12:46:03;2.05;;;0.80;;
81621;SDS011;71029;50.742;7.090;2023-07-31T12:48:30;1.85;;;0.95;;
81621;SDS011;71029;50.742;7.090;2023-07-31T12:50:58;2.33;;;1.23;;
81621;SDS011;71029;50.742;7.090;2023-07-31T12:53:24;1.90;;;0.95;;
81621;SDS011;71029;50.742;7.090;2023-07-31T12:55:51;2.13;;;1.10;;
81621;SDS011;71029;50.742;7.090;2023-07-31T12:58:17;2.65;;;1.20;;
81621;SDS011;71029;50.742;7.090;2023-07-31T13:00:43;2.15;;;0.98;;
81621;SDS011;71029;50.742;7.090;2023-07-31T13:03:10;2.53;;;1.17;;
81621;SDS011;71029;50.742;7.090;2023-07-31T13:05:37;3.10;;;1.30;;
81621;SDS011;71029;50.742;7.090;2023-07-31T13:08:03;3.47;;;1.50;;
81621;SDS011;71029;50.742;7.090;2023-07-31T13:10:30;5.65;;;1.20;;
81621;SDS011;71029;50.742;7.090;2023-07-31T13:12:56;2.20;;;1.23;;
81621;SDS011;71029;50.742;7.090;2023-07-31T13:15:23;2.92;;;1.30;;
81621;SDS011;71029;50.742;7.090;2023-07-31T13:17:49;5.75;;;1.13;;
81621;SDS011;71029;50.742;7.090;2023-07-31T13:20:16;2.72;;;1.52;;
81621;SDS011;71029;50.742;7.090;2023-07-31T13:22:42;3.65;;;1.42;;
81621;SDS011;71029;50.742;7.090;2023-07-31T13:25:12;3.10;;;1.25;;
81621;SDS011;71029;50.742;7.090;2023-07-31T13:27:38;2.95;;;1.50;;
81621;SDS011;71029;50.742;7.090;2023-07-31T13:30:05;3.20;;;1.42;;
81621;SDS011;71029;50.742;7.090;2023-07-31T13:32:32;2.92;;;1.42;;
81621;SDS011;71029;50.742;7.090;2023-07-31T13:34:58;2.42;;;1.60;;
81621;SDS011;71029;50.742;7.090;2023-07-31T13:37:25;3.13;;;2.03;;
81621;SDS011;71029;50.742;7.090;2023-07-31T13:39:51;3.15;;;1.60;;
81621;SDS011;71029;50.742;7.090;2023-07-31T13:42:17;3.15;;;1.50;;
81621;SDS011;71029;50.742;7.090;2023-07-31T13:44:44;2.45;;;1.42;;
81621;SDS011;71029;50.742;7.090;2023-07-31T13:47:10;2.75;;;1.70;;
81621;SDS011;71029;50.742;7.090;2023-07-31T13:49:37;2.22;;;1.30;;
81621;SDS011;71029;50.742;7.090;2023-07-31T13:52:05;2.83;;;1.77;;
81621;SDS011;71029;50.742;7.090;2023-07-31T13:54:31;2.35;;;1.60;;
81621;SDS011;71029;50.742;7.090;2023-07-31T13:56:58;2.33;;;1.73;;
81621;SDS011;71029;50.742;7.090;2023-07-31T13:59:24;2.63;;;1.58;;
81621;SDS011;71029;50.742;7.090;2023-07-31T14:01:51;2.55;;;1.48;;
81621;SDS011;71029;50.742;7.090;2023-07-31T14:04:17;2.20;;;1.50;;
81621;SDS011;71029;50.742;7.090;2023-07-31T14:06:44;2.70;;;1.52;;
81621;SDS011;71029;50.742;7.090;2023-07-31T14:09:10;3.45;;;1.38;;
81621;SDS011;71029;50.742;7.090;2023-07-31T14:11:37;2.75;;;1.50;;
81621;SDS011;71029;50.742;7.090;2023-07-31T14:14:08;2.58;;;1.83;;
81621;SDS011;71029;50.742;7.090;2023-07-31T14:16:35;2.63;;;1.33;;
81621;SDS011;71029;50.742;7.090;2023-07-31T14:19:02;2.97;;;1.33;;
81621;SDS011;71029;50.742;7.090;2023-07-31T14:21:29;3.10;;;1.73;;
81621;SDS011;71029;50.742;7.090;2023-07-31T14:23:55;2.65;;;1.65;;
81621;SDS011;71029;50.742;7.090;2023-07-31T14:26:21;2.38;;;1.70;;
81621;SDS011;71029;50.742;7.090;2023-07-31T14:28:48;2.60;;;1.60;;
81621;SDS011;71029;50.742;7.090;2023-07-31T14:31:15;3.05;;;1.60;;
81621;SDS011;71029;50.742;7.090;2023-07-31T14:33:41;3.78;;;1.52;;
81621;SDS011;71029;50.742;7.090;2023-07-31T14:36:07;3.03;;;1.67;;
81621;SDS011;71029;50.742;7.090;2023-07-31T14:38:34;6.50;;;1.58;;
81621;SDS011;71029;50.742;7.090;2023-07-31T14:41:00;3.35;;;1.27;;
81621;SDS011;71029;50.742;7.090;2023-07-31T14:43:27;3.78;;;1.13;;
81621;SDS011;71029;50.742;7.090;2023-07-31T14:45:53;2.63;;;1.67;;
81621;SDS011;71029;50.742;7.090;2023-07-31T14:48:22;3.17;;;1.58;;
81621;SDS011;71029;50.742;7.090;2023-07-31T14:50:48;3.38;;;1.65;;
81621;SDS011;71029;50.742;7.090;2023-07-31T14:53:15;6.15;;;1.70;;
81621;SDS011;71029;50.742;7.090;2023-07-31T14:55:41;3.70;;;1.70;;
81621;SDS011;71029;50.742;7.090;2023-07-31T14:58:07;4.25;;;1.55;;
81621;SDS011;71029;50.742;7.090;2023-07-31T15:00:36;3.38;;;1.25;;
81621;SDS011;71029;50.742;7.090;2023-07-31T15:03:03;3.00;;;1.42;;
81621;SDS011;71029;50.742;7.090;2023-07-31T15:05:30;3.22;;;1.70;;
81621;SDS011;71029;50.742;7.090;2023-07-31T15:07:57;4.10;;;1.60;;
81621;SDS011;71029;50.742;7.090;2023-07-31T15:10:23;3.65;;;1.90;;
81621;SDS011;71029;50.742;7.090;2023-07-31T15:12:50;2.65;;;1.45;;
81621;SDS011;71029;50.742;7.090;2023-07-31T15:15:16;4.68;;;1.33;;
81621;SDS011;71029;50.742;7.090;2023-07-31T15:17:43;1.83;;;1.20;;
81621;SDS011;71029;50.742;7.090;2023-07-31T15:20:09;3.65;;;1.55;;
81621;SDS011;71029;50.742;7.090;2023-07-31T15:22:36;4.53;;;1.77;;
81621;SDS011;71029;50.742;7.090;2023-07-31T15:25:03;4.32;;;1.67;;